createdAt,value
2023-03-22T00:01:28.523Z,12.49
2023-03-22T00:03:55.982Z,12.45
2023-03-22T00:06:23.938Z,12.37
2023-03-22T00:08:52.684Z,12.34
2023-03-22T00:11:20.917Z,12.28
2023-03-22T00:13:52.469Z,12.32
2023-03-22T00:16:20.983Z,12.32
2023-03-22T00:18:48.558Z,12.37
2023-03-22T00:21:17.885Z,12.37
2023-03-22T00:23:45.834Z,12.44
2023-03-22T00:26:14.422Z,12.24
2023-03-22T00:28:42.706Z,12.40
2023-03-22T00:31:12.011Z,12.39
2023-03-22T00:33:39.518Z,12.57
2023-03-22T00:36:09.716Z,12.50
2023-03-22T00:38:43.774Z,12.45
2023-03-22T00:41:13.914Z,12.50
2023-03-22T00:43:42.125Z,12.51
2023-03-22T00:46:11.884Z,12.49
2023-03-22T00:48:39.692Z,12.42
2023-03-22T00:51:08.329Z,12.44
2023-03-22T00:53:36.310Z,12.45
2023-03-22T00:56:04.283Z,12.36
2023-03-22T00:58:31.756Z,12.49
2023-03-22T01:00:59.567Z,12.51
2023-03-22T01:03:28.442Z,12.29
2023-03-22T01:05:56.336Z,12.21
2023-03-22T01:08:24.511Z,12.31
2023-03-22T01:10:51.988Z,12.35
2023-03-22T01:13:19.591Z,12.28
2023-03-22T01:15:47.729Z,12.32
2023-03-22T01:18:15.224Z,12.29
2023-03-22T01:20:44.069Z,12.32
2023-03-22T01:23:11.520Z,12.09
2023-03-22T01:25:38.980Z,12.22
2023-03-22T01:28:07.604Z,12.19
2023-03-22T01:30:35.403Z,12.22
2023-03-22T01:33:02.986Z,12.31
2023-03-22T01:35:30.641Z,12.29
2023-03-22T01:37:59.539Z,12.38
2023-03-22T01:40:27.599Z,12.28
2023-03-22T01:42:56.008Z,12.30
2023-03-22T01:45:40.157Z,12.41
2023-03-22T01:48:15.439Z,12.35
2023-03-22T01:50:46.640Z,12.12
2023-03-22T01:53:18.972Z,12.11
2023-03-22T01:55:47.866Z,12.20
2023-03-22T01:58:18.069Z,12.17
2023-03-22T02:00:46.794Z,12.06
2023-03-22T02:03:17.687Z,12.09
2023-03-22T02:05:45.375Z,12.04
2023-03-22T02:08:14.784Z,12.01
2023-03-22T02:10:43.910Z,12.11
2023-03-22T02:13:26.419Z,11.82
2023-03-22T02:16:06.461Z,11.92
2023-03-22T02:18:50.860Z,11.87
2023-03-22T02:21:48.940Z,12.08
2023-03-22T02:24:46.076Z,12.00
2023-03-22T02:27:37.499Z,12.03
2023-03-22T02:30:29.720Z,12.05
2023-03-22T02:33:20.822Z,12.03
2023-03-22T02:36:07.335Z,11.96
2023-03-22T02:38:57.602Z,11.84
2023-03-22T02:41:36.130Z,11.89
2023-03-22T02:44:10.290Z,11.87
2023-03-22T02:46:44.368Z,11.96
2023-03-22T02:49:18.844Z,11.87
2023-03-22T02:51:49.789Z,11.88
2023-03-22T02:54:23.344Z,11.75
2023-03-22T02:56:57.074Z,11.56
2023-03-22T02:59:26.740Z,11.72
2023-03-22T03:01:58.284Z,11.74
2023-03-22T03:04:29.909Z,11.71
2023-03-22T03:07:03.730Z,11.78
2023-03-22T03:09:34.006Z,11.67
2023-03-22T03:12:01.419Z,11.57
2023-03-22T03:14:30.571Z,11.65
2023-03-22T03:17:11.564Z,11.51
2023-03-22T03:19:44.949Z,11.65
2023-03-22T03:22:28.830Z,11.71
2023-03-22T03:25:07.201Z,11.58
2023-03-22T03:27:38.304Z,11.64
2023-03-22T03:30:13.300Z,11.46
2023-03-22T03:32:45.854Z,11.35
2023-03-22T03:35:22.294Z,11.22
2023-03-22T03:37:54.470Z,11.27
2023-03-22T03:40:26.426Z,11.32
2023-03-22T03:42:56.819Z,11.34
2023-03-22T03:45:25.766Z,11.35
2023-03-22T03:47:56.962Z,11.27
2023-03-22T03:50:26.213Z,11.22
2023-03-22T03:52:55.507Z,11.27
2023-03-22T03:55:25.479Z,11.21
2023-03-22T03:57:52.975Z,11.27
2023-03-22T04:00:20.846Z,11.29
2023-03-22T04:02:48.304Z,11.19
2023-03-22T04:05:16.693Z,11.18
2023-03-22T04:07:44.108Z,11.27
2023-03-22T04:10:11.819Z,11.27
2023-03-22T04:12:40.563Z,11.20
2023-03-22T04:15:09.041Z,11.26
2023-03-22T04:17:37.656Z,11.33
2023-03-22T04:20:06.192Z,11.19
2023-03-22T04:22:34.819Z,11.14
2023-03-22T04:25:02.421Z,11.09
2023-03-22T04:27:30.090Z,11.19
2023-03-22T04:30:00.920Z,11.23
2023-03-22T04:32:28.375Z,11.17
2023-03-22T04:34:55.905Z,11.33
2023-03-22T04:37:26.922Z,11.28
2023-03-22T04:39:54.503Z,11.17
2023-03-22T04:42:21.982Z,11.22
2023-03-22T04:44:49.512Z,11.09
2023-03-22T04:47:18.910Z,11.07
2023-03-22T04:49:46.370Z,11.07
2023-03-22T04:52:13.862Z,11.06
2023-03-22T04:54:41.452Z,11.08
2023-03-22T04:57:08.945Z,11.00
2023-03-22T04:59:36.388Z,11.03
2023-03-22T05:02:03.975Z,10.99
2023-03-22T05:04:32.798Z,11.04
2023-03-22T05:07:00.331Z,11.03
2023-03-22T05:09:27.928Z,11.07
2023-03-22T05:11:55.727Z,11.24
2023-03-22T05:14:23.247Z,11.20
2023-03-22T05:16:51.057Z,11.18
2023-03-22T05:19:22.185Z,11.06
2023-03-22T05:21:57.695Z,11.09
2023-03-22T05:24:25.297Z,11.10
2023-03-22T05:26:53.885Z,11.03
2023-03-22T05:29:22.527Z,11.21
2023-03-22T05:31:50.235Z,11.10
2023-03-22T05:34:17.802Z,11.14
2023-03-22T05:36:46.146Z,11.32
2023-03-22T05:39:15.864Z,11.34
2023-03-22T05:41:43.380Z,11.37
2023-03-22T05:44:11.096Z,11.36
2023-03-22T05:46:38.544Z,11.26
2023-03-22T05:49:06.011Z,11.29
2023-03-22T05:51:33.870Z,11.45
2023-03-22T05:54:01.339Z,11.44
2023-03-22T05:56:30.108Z,11.55
2023-03-22T05:58:58.064Z,11.55
2023-03-22T06:01:25.502Z,11.65
2023-03-22T06:03:53.006Z,11.59
2023-03-22T06:06:20.505Z,11.74
2023-03-22T06:08:47.955Z,11.78
2023-03-22T06:11:15.427Z,11.81
2023-03-22T06:13:44.239Z,11.73
2023-03-22T06:16:11.937Z,11.90
2023-03-22T06:18:39.477Z,11.82
2023-03-22T06:21:07.332Z,11.77
2023-03-22T06:23:35.829Z,11.80
2023-03-22T06:26:03.310Z,11.74
2023-03-22T06:28:30.757Z,11.72
2023-03-22T06:30:59.627Z,11.88
2023-03-22T06:33:27.080Z,11.86
2023-03-22T06:35:54.584Z,11.84
2023-03-22T06:38:22.036Z,11.71
2023-03-22T06:40:49.510Z,11.99
2023-03-22T06:43:17.010Z,12.08
2023-03-22T06:45:46.410Z,12.19
2023-03-22T06:48:15.796Z,12.03
2023-03-22T06:50:45.280Z,12.21
2023-03-22T06:53:12.971Z,12.26
2023-03-22T06:55:40.803Z,12.32
2023-03-22T06:58:08.487Z,12.37
2023-03-22T07:00:36.256Z,12.41
2023-03-22T07:03:03.743Z,12.44
2023-03-22T07:05:32.595Z,12.21
2023-03-22T07:08:00.130Z,12.24
2023-03-22T07:10:27.608Z,12.37
2023-03-22T07:12:55.268Z,12.36
2023-03-22T07:15:24.515Z,12.31
2023-03-22T07:17:52.335Z,12.51
2023-03-22T07:20:20.342Z,12.50
2023-03-22T07:22:50.767Z,12.54
2023-03-22T07:25:18.727Z,12.29
2023-03-22T07:27:46.268Z,12.30
2023-03-22T07:30:14.392Z,12.13
2023-03-22T07:32:41.994Z,12.23
2023-03-22T07:35:09.946Z,12.24
2023-03-22T07:37:37.595Z,12.43
2023-03-22T07:40:08.046Z,12.35
2023-03-22T07:42:35.483Z,12.38
2023-03-22T07:45:03.670Z,12.49
2023-03-22T07:47:40.725Z,12.65
2023-03-22T07:50:11.710Z,12.50
2023-03-22T07:52:39.556Z,12.45
2023-03-22T07:55:10.203Z,12.54
2023-03-22T07:57:38.300Z,12.64
2023-03-22T08:00:07.979Z,12.74
2023-03-22T08:02:35.502Z,12.94
2023-03-22T08:05:03.007Z,12.96
2023-03-22T08:07:31.500Z,12.90
2023-03-22T08:09:59.329Z,12.89
2023-03-22T08:12:28.924Z,12.89
2023-03-22T08:14:56.409Z,12.91
2023-03-22T08:17:26.153Z,12.94
2023-03-22T08:19:55.120Z,12.73
2023-03-22T08:22:25.948Z,12.86
2023-03-22T08:24:53.686Z,12.92
2023-03-22T08:27:21.446Z,12.94
2023-03-22T08:29:50.460Z,13.13
2023-03-22T08:32:18.364Z,13.34
2023-03-22T08:34:45.913Z,13.56
2023-03-22T08:37:13.634Z,13.41
2023-03-22T08:39:41.392Z,13.37
2023-03-22T08:42:08.863Z,13.28
2023-03-22T08:44:36.732Z,13.34
2023-03-22T08:47:06.014Z,13.27
2023-03-22T08:49:33.725Z,13.49
2023-03-22T08:52:01.191Z,13.38
2023-03-22T08:54:33.455Z,13.52
2023-03-22T08:57:03.400Z,13.64
2023-03-22T08:59:31.371Z,13.57
2023-03-22T09:01:59.118Z,13.73
2023-03-22T09:04:27.969Z,13.75
2023-03-22T09:06:55.509Z,13.57
2023-03-22T09:09:23.026Z,13.67
2023-03-22T09:11:50.734Z,13.42
2023-03-22T09:14:18.226Z,13.52
2023-03-22T09:16:45.713Z,13.82
2023-03-22T09:19:13.273Z,14.03
2023-03-22T09:21:42.612Z,14.05
2023-03-22T09:24:10.357Z,14.16
2023-03-22T09:26:37.974Z,14.26
2023-03-22T09:29:05.529Z,14.17
2023-03-22T09:31:33.063Z,14.27
2023-03-22T09:34:00.740Z,14.09
2023-03-22T09:36:28.336Z,14.19
2023-03-22T09:38:57.219Z,14.08
2023-03-22T09:41:32.567Z,14.13
2023-03-22T09:44:05.061Z,14.20
2023-03-22T09:46:36.840Z,14.19
2023-03-22T09:49:08.273Z,13.99
2023-03-22T09:51:40.815Z,13.97
2023-03-22T09:54:15.398Z,14.28
2023-03-22T09:56:45.052Z,14.66
2023-03-22T09:59:18.766Z,14.79
2023-03-22T10:01:52.520Z,14.81
2023-03-22T10:04:42.479Z,14.60
2023-03-22T10:07:27.040Z,14.57
2023-03-22T10:10:05.704Z,14.78
2023-03-22T10:12:39.390Z,14.92
2023-03-22T10:15:13.786Z,14.83
2023-03-22T10:17:44.830Z,14.70
2023-03-22T10:20:22.213Z,14.62
2023-03-22T10:22:53.288Z,14.48
2023-03-22T10:25:28.816Z,14.44
2023-03-22T10:27:57.891Z,14.44
2023-03-22T10:30:28.208Z,14.75
2023-03-22T10:33:01.503Z,14.82
2023-03-22T10:35:30.507Z,14.94
2023-03-22T10:38:01.473Z,14.97
2023-03-22T10:40:32.634Z,14.70
2023-03-22T10:43:04.359Z,14.73
2023-03-22T10:45:35.875Z,14.86
2023-03-22T10:48:08.078Z,14.77
2023-03-22T10:50:38.958Z,14.52
2023-03-22T10:53:08.563Z,14.58
2023-03-22T10:55:42.364Z,14.81
2023-03-22T10:58:14.591Z,14.91
2023-03-22T11:00:46.908Z,14.75
2023-03-22T11:03:27.833Z,14.77
2023-03-22T11:06:03.829Z,14.87
2023-03-22T11:08:39.968Z,14.71
2023-03-22T11:11:17.602Z,14.76
2023-03-22T11:13:51.309Z,14.79
2023-03-22T11:16:20.857Z,14.76
2023-03-22T11:18:48.571Z,14.79
2023-03-22T11:21:18.011Z,14.92
2023-03-22T11:23:54.904Z,14.99
2023-03-22T11:26:31.613Z,14.78
2023-03-22T11:29:13.859Z,14.88
2023-03-22T11:31:57.319Z,14.98
2023-03-22T11:34:27.472Z,15.23
2023-03-22T11:36:57.414Z,15.20
2023-03-22T11:39:28.264Z,15.35
2023-03-22T11:42:01.389Z,15.13
2023-03-22T11:44:33.888Z,14.98
2023-03-22T11:47:03.593Z,14.91
2023-03-22T11:49:40.437Z,14.87
2023-03-22T11:52:11.092Z,14.78
2023-03-22T11:54:42.211Z,14.78
2023-03-22T11:57:16.874Z,14.81
2023-03-22T11:59:50.962Z,14.77
2023-03-22T12:02:24.556Z,14.68
2023-03-22T12:04:57.250Z,14.43
2023-03-22T12:07:26.529Z,14.26
2023-03-22T12:10:00.248Z,14.39
2023-03-22T12:12:31.986Z,14.43
2023-03-22T12:15:04.941Z,14.39
2023-03-22T12:17:39.190Z,14.58
2023-03-22T12:20:17.268Z,14.64
2023-03-22T12:22:51.253Z,14.74
2023-03-22T12:25:22.412Z,14.68
2023-03-22T12:27:54.960Z,14.70
2023-03-22T12:30:26.275Z,14.51
2023-03-22T12:32:59.715Z,14.57
2023-03-22T12:35:31.400Z,14.63
2023-03-22T12:38:02.765Z,14.44
2023-03-22T12:40:34.688Z,14.49
2023-03-22T12:43:12.331Z,14.40
2023-03-22T12:45:43.408Z,14.33
2023-03-22T12:48:16.961Z,14.50
2023-03-22T12:50:48.332Z,14.30
2023-03-22T12:53:18.516Z,14.39
2023-03-22T12:55:47.767Z,14.35
2023-03-22T12:58:21.585Z,14.32
2023-03-22T13:00:52.161Z,14.13
2023-03-22T13:03:26.624Z,14.16
2023-03-22T13:06:02.619Z,14.29
2023-03-22T13:09:12.889Z,14.24
2023-03-22T13:11:41.000Z,14.10
2023-03-22T13:14:13.546Z,14.22
2023-03-22T13:16:50.748Z,14.24
2023-03-22T13:19:34.865Z,14.10
2023-03-22T13:22:16.723Z,13.98
2023-03-22T13:25:06.808Z,13.84
2023-03-22T13:27:40.055Z,13.82
2023-03-22T13:30:17.762Z,13.97
2023-03-22T13:32:54.530Z,13.96
2023-03-22T13:35:28.130Z,14.08
2023-03-22T13:38:03.034Z,14.19
2023-03-22T13:40:37.323Z,14.08
2023-03-22T13:43:25.886Z,13.93
2023-03-22T13:46:27.554Z,13.98
2023-03-22T13:49:16.430Z,14.18
2023-03-22T13:51:44.845Z,14.18
2023-03-22T13:54:23.788Z,14.15
2023-03-22T13:56:56.391Z,14.23
2023-03-22T13:59:30.772Z,14.14
2023-03-22T14:02:05.049Z,14.15
2023-03-22T14:04:39.331Z,14.25
2023-03-22T14:07:14.779Z,14.35
2023-03-22T14:09:47.757Z,14.35
2023-03-22T14:12:21.157Z,14.34
2023-03-22T14:14:54.227Z,14.32
2023-03-22T14:17:35.373Z,14.48
2023-03-22T14:20:08.537Z,14.52
